sensor_id;sensor_type;location;lat;lon;timestamp;P1;durP1;ratioP1;P2;durP2;ratioP2
1024;SDS011;501;48.214;11.350;2022-07-29T00:02:12;2.17;;;1.97;;
1024;SDS011;501;48.214;11.350;2022-07-29T00:04:37;2.53;;;2.33;;
1024;SDS011;501;48.214;11.350;2022-07-29T00:07:03;2.70;;;2.50;;
1024;SDS011;501;48.214;11.350;2022-07-29T00:09:30;3.47;;;2.70;;
1024;SDS011;501;48.214;11.350;2022-07-29T00:11:56;2.57;;;2.37;;
1024;SDS011;501;48.214;11.350;2022-07-29T00:14:25;3.20;;;2.90;;
1024;SDS011;501;48.214;11.350;2022-07-29T00:16:51;3.43;;;3.13;;
1024;SDS011;501;48.214;11.350;2022-07-29T00:19:16;5.60;;;2.70;;
1024;SDS011;501;48.214;11.350;2022-07-29T00:21:42;3.27;;;2.53;;
1024;SDS011;501;48.214;11.350;2022-07-29T00:24:08;2.33;;;2.13;;
1024;SDS011;501;48.214;11.350;2022-07-29T00:26:33;2.80;;;2.30;;
1024;SDS011;501;48.214;11.350;2022-07-29T00:28:59;3.10;;;2.50;;
1024;SDS011;501;48.214;11.350;2022-07-29T00:31:26;2.60;;;2.40;;
1024;SDS011;501;48.214;11.350;2022-07-29T00:33:52;2.83;;;2.27;;
1024;SDS011;501;48.214;11.350;2022-07-29T00:36:18;1.83;;;1.73;;
1024;SDS011;501;48.214;11.350;2022-07-29T00:38:45;2.47;;;2.27;;
1024;SDS011;501;48.214;11.350;2022-07-29T00:41:15;2.10;;;2.00;;
1024;SDS011;501;48.214;11.350;2022-07-29T00:43:41;2.47;;;2.27;;
1024;SDS011;501;48.214;11.350;2022-07-29T00:46:07;2.47;;;1.83;;
1024;SDS011;501;48.214;11.350;2022-07-29T00:48:33;1.57;;;1.47;;
1024;SDS011;501;48.214;11.350;2022-07-29T00:50:59;1.83;;;1.73;;
1024;SDS011;501;48.214;11.350;2022-07-29T00:53:26;1.83;;;1.73;;
1024;SDS011;501;48.214;11.350;2022-07-29T00:55:55;1.53;;;1.43;;
1024;SDS011;501;48.214;11.350;2022-07-29T00:58:22;2.10;;;1.73;;
1024;SDS011;501;48.214;11.350;2022-07-29T01:00:48;2.50;;;1.33;;
1024;SDS011;501;48.214;11.350;2022-07-29T01:03:14;1.77;;;1.67;;
1024;SDS011;501;48.214;11.350;2022-07-29T01:05:40;2.17;;;1.60;;
1024;SDS011;501;48.214;11.350;2022-07-29T01:08:07;3.20;;;2.27;;
1024;SDS011;501;48.214;11.350;2022-07-29T01:10:33;3.20;;;2.00;;
1024;SDS011;501;48.214;11.350;2022-07-29T01:13:02;2.53;;;2.30;;
1024;SDS011;501;48.214;11.350;2022-07-29T01:15:28;3.63;;;2.50;;
1024;SDS011;501;48.214;11.350;2022-07-29T01:18:01;2.33;;;2.23;;
1024;SDS011;501;48.214;11.350;2022-07-29T01:23:40;2.57;;;2.30;;
1024;SDS011;501;48.214;11.350;2022-07-29T01:26:28;2.00;;;1.83;;
1024;SDS011;501;48.214;11.350;2022-07-29T01:29:01;2.80;;;2.00;;
1024;SDS011;501;48.214;11.350;2022-07-29T01:31:54;2.30;;;2.20;;
1024;SDS011;501;48.214;11.350;2022-07-29T01:34:41;2.60;;;2.40;;
1024;SDS011;501;48.214;11.350;2022-07-29T01:37:18;2.97;;;2.13;;
1024;SDS011;501;48.214;11.350;2022-07-29T01:40:03;2.30;;;2.10;;
1024;SDS011;501;48.214;11.350;2022-07-29T01:42:44;2.13;;;2.03;;
1024;SDS011;501;48.214;11.350;2022-07-29T01:47:54;2.30;;;2.10;;
1024;SDS011;501;48.214;11.350;2022-07-29T01:50:26;2.93;;;2.20;;
1024;SDS011;501;48.214;11.350;2022-07-29T01:53:06;2.27;;;2.03;;
1024;SDS011;501;48.214;11.350;2022-07-29T01:55:35;2.20;;;2.10;;
1024;SDS011;501;48.214;11.350;2022-07-29T01:58:04;2.90;;;2.70;;
1024;SDS011;501;48.214;11.350;2022-07-29T02:00:31;3.07;;;2.60;;
1024;SDS011;501;48.214;11.350;2022-07-29T02:02:58;2.40;;;2.20;;
1024;SDS011;501;48.214;11.350;2022-07-29T02:05:27;2.47;;;1.87;;
1024;SDS011;501;48.214;11.350;2022-07-29T02:07:54;2.50;;;2.30;;
1024;SDS011;501;48.214;11.350;2022-07-29T02:10:23;2.40;;;2.20;;
1024;SDS011;501;48.214;11.350;2022-07-29T02:12:52;2.40;;;2.20;;
1024;SDS011;501;48.214;11.350;2022-07-29T02:15:20;2.20;;;2.00;;
1024;SDS011;501;48.214;11.350;2022-07-29T02:17:55;2.47;;;1.80;;
1024;SDS011;501;48.214;11.350;2022-07-29T02:20:24;2.40;;;1.73;;
1024;SDS011;501;48.214;11.350;2022-07-29T02:22:51;2.43;;;2.23;;
1024;SDS011;501;48.214;11.350;2022-07-29T02:25:18;2.20;;;2.10;;
1024;SDS011;501;48.214;11.350;2022-07-29T02:27:45;2.30;;;2.10;;
1024;SDS011;501;48.214;11.350;2022-07-29T02:30:13;2.27;;;2.10;;
1024;SDS011;501;48.214;11.350;2022-07-29T02:32:39;1.67;;;1.57;;
1024;SDS011;501;48.214;11.350;2022-07-29T02:35:07;2.60;;;2.43;;
1024;SDS011;501;48.214;11.350;2022-07-29T02:37:34;2.73;;;2.20;;
1024;SDS011;501;48.214;11.350;2022-07-29T02:40:01;5.10;;;2.57;;
1024;SDS011;501;48.214;11.350;2022-07-29T02:42:27;1.90;;;1.70;;
1024;SDS011;501;48.214;11.350;2022-07-29T02:44:54;2.07;;;1.90;;
1024;SDS011;501;48.214;11.350;2022-07-29T02:47:21;6.50;;;2.37;;
1024;SDS011;501;48.214;11.350;2022-07-29T02:50:04;2.10;;;1.70;;
1024;SDS011;501;48.214;11.350;2022-07-29T02:52:43;2.80;;;2.10;;
1024;SDS011;501;48.214;11.350;2022-07-29T02:57:43;1.77;;;1.67;;
1024;SDS011;501;48.214;11.350;2022-07-29T03:00:14;2.77;;;1.60;;
1024;SDS011;501;48.214;11.350;2022-07-29T03:02:45;2.13;;;2.03;;
1024;SDS011;501;48.214;11.350;2022-07-29T03:05:16;2.20;;;2.03;;
1024;SDS011;501;48.214;11.350;2022-07-29T03:07:49;2.20;;;2.10;;
1024;SDS011;501;48.214;11.350;2022-07-29T03:10:19;2.60;;;2.40;;
1024;SDS011;501;48.214;11.350;2022-07-29T03:12:45;2.23;;;2.13;;
1024;SDS011;501;48.214;11.350;2022-07-29T03:15:12;2.37;;;2.17;;
1024;SDS011;501;48.214;11.350;2022-07-29T03:17:38;2.70;;;2.50;;
1024;SDS011;501;48.214;11.350;2022-07-29T03:20:06;3.40;;;2.07;;
1024;SDS011;501;48.214;11.350;2022-07-29T03:22:32;2.20;;;2.00;;
1024;SDS011;501;48.214;11.350;2022-07-29T03:25:09;2.27;;;2.00;;
1024;SDS011;501;48.214;11.350;2022-07-29T03:27:36;1.93;;;1.83;;
1024;SDS011;501;48.214;11.350;2022-07-29T03:30:02;2.13;;;1.90;;
1024;SDS011;501;48.214;11.350;2022-07-29T03:32:28;2.37;;;2.20;;
1024;SDS011;501;48.214;11.350;2022-07-29T03:34:53;2.20;;;2.10;;
1024;SDS011;501;48.214;11.350;2022-07-29T03:37:19;3.37;;;2.63;;
1024;SDS011;501;48.214;11.350;2022-07-29T03:39:45;5.20;;;2.40;;
1024;SDS011;501;48.214;11.350;2022-07-29T03:42:13;2.77;;;1.90;;
1024;SDS011;501;48.214;11.350;2022-07-29T03:44:41;3.57;;;3.10;;
1024;SDS011;501;48.214;11.350;2022-07-29T03:47:10;4.07;;;2.87;;
1024;SDS011;501;48.214;11.350;2022-07-29T03:49:37;2.43;;;2.23;;
1024;SDS011;501;48.214;11.350;2022-07-29T03:52:05;3.77;;;2.73;;
1024;SDS011;501;48.214;11.350;2022-07-29T03:54:31;3.57;;;2.97;;
1024;SDS011;501;48.214;11.350;2022-07-29T03:56:57;3.37;;;2.70;;
1024;SDS011;501;48.214;11.350;2022-07-29T03:59:26;3.17;;;2.63;;
1024;SDS011;501;48.214;11.350;2022-07-29T04:01:52;3.37;;;3.00;;
1024;SDS011;501;48.214;11.350;2022-07-29T04:04:18;4.50;;;3.03;;
1024;SDS011;501;48.214;11.350;2022-07-29T04:06:45;3.03;;;2.47;;
1024;SDS011;501;48.214;11.350;2022-07-29T04:09:11;3.23;;;2.80;;
1024;SDS011;501;48.214;11.350;2022-07-29T04:11:40;2.83;;;2.63;;
1024;SDS011;501;48.214;11.350;2022-07-29T04:14:06;2.63;;;2.43;;
1024;SDS011;501;48.214;11.350;2022-07-29T04:16:32;3.63;;;2.80;;
1024;SDS011;501;48.214;11.350;2022-07-29T04:18:58;3.37;;;2.80;;
1024;SDS011;501;48.214;11.350;2022-07-29T04:21:23;3.30;;;3.00;;
1024;SDS011;501;48.214;11.350;2022-07-29T04:23:49;2.43;;;2.27;;
1024;SDS011;501;48.214;11.350;2022-07-29T04:26:16;3.90;;;3.30;;
1024;SDS011;501;48.214;11.350;2022-07-29T04:28:42;4.40;;;3.13;;
1024;SDS011;501;48.214;11.350;2022-07-29T04:31:08;4.37;;;3.30;;
1024;SDS011;501;48.214;11.350;2022-07-29T04:33:34;4.60;;;3.53;;
1024;SDS011;501;48.214;11.350;2022-07-29T04:35:59;3.30;;;2.80;;
1024;SDS011;501;48.214;11.350;2022-07-29T04:38:25;3.30;;;3.00;;
1024;SDS011;501;48.214;11.350;2022-07-29T04:40:50;3.43;;;3.23;;
1024;SDS011;501;48.214;11.350;2022-07-29T04:43:16;3.97;;;3.27;;
1024;SDS011;501;48.214;11.350;2022-07-29T04:45:42;6.90;;;4.00;;
1024;SDS011;501;48.214;11.350;2022-07-29T04:48:07;3.77;;;3.47;;
1024;SDS011;501;48.214;11.350;2022-07-29T04:50:33;3.67;;;3.20;;
1024;SDS011;501;48.214;11.350;2022-07-29T04:52:59;6.03;;;4.07;;
1024;SDS011;501;48.214;11.350;2022-07-29T04:55:25;4.47;;;3.60;;
1024;SDS011;501;48.214;11.350;2022-07-29T04:57:51;3.40;;;3.10;;
1024;SDS011;501;48.214;11.350;2022-07-29T05:00:16;3.83;;;3.40;;
1024;SDS011;501;48.214;11.350;2022-07-29T05:02:42;3.80;;;3.50;;
1024;SDS011;501;48.214;11.350;2022-07-29T05:05:08;2.83;;;2.63;;
1024;SDS011;501;48.214;11.350;2022-07-29T05:07:34;5.37;;;3.30;;
1024;SDS011;501;48.214;11.350;2022-07-29T05:09:59;3.27;;;3.07;;
1024;SDS011;501;48.214;11.350;2022-07-29T05:12:25;3.13;;;2.80;;
1024;SDS011;501;48.214;11.350;2022-07-29T05:14:51;3.13;;;2.83;;
1024;SDS011;501;48.214;11.350;2022-07-29T05:17:17;3.30;;;2.77;;
1024;SDS011;501;48.214;11.350;2022-07-29T05:19:43;2.90;;;2.70;;
1024;SDS011;501;48.214;11.350;2022-07-29T05:22:08;5.70;;;3.40;;
1024;SDS011;501;48.214;11.350;2022-07-29T05:24:34;3.53;;;3.20;;
1024;SDS011;501;48.214;11.350;2022-07-29T05:27:00;3.47;;;2.77;;
1024;SDS011;501;48.214;11.350;2022-07-29T05:29:25;2.80;;;2.60;;
1024;SDS011;501;48.214;11.350;2022-07-29T05:31:51;3.87;;;3.23;;
1024;SDS011;501;48.214;11.350;2022-07-29T05:34:18;2.80;;;2.60;;
1024;SDS011;501;48.214;11.350;2022-07-29T05:36:44;2.53;;;2.20;;
1024;SDS011;501;48.214;11.350;2022-07-29T05:39:10;3.17;;;2.33;;
1024;SDS011;501;48.214;11.350;2022-07-29T05:41:36;4.00;;;2.80;;
1024;SDS011;501;48.214;11.350;2022-07-29T05:44:01;2.57;;;2.43;;
1024;SDS011;501;48.214;11.350;2022-07-29T05:46:27;2.30;;;2.13;;
1024;SDS011;501;48.214;11.350;2022-07-29T05:48:53;2.80;;;2.60;;
1024;SDS011;501;48.214;11.350;2022-07-29T05:51:19;2.83;;;2.63;;
1024;SDS011;501;48.214;11.350;2022-07-29T05:53:44;2.83;;;2.60;;
1024;SDS011;501;48.214;11.350;2022-07-29T05:56:10;3.97;;;3.03;;
1024;SDS011;501;48.214;11.350;2022-07-29T05:58:35;3.70;;;3.40;;
1024;SDS011;501;48.214;11.350;2022-07-29T06:01:01;4.87;;;4.03;;
1024;SDS011;501;48.214;11.350;2022-07-29T06:03:28;3.93;;;3.60;;
1024;SDS011;501;48.214;11.350;2022-07-29T06:05:53;3.40;;;3.20;;
1024;SDS011;501;48.214;11.350;2022-07-29T06:08:19;6.80;;;3.33;;
1024;SDS011;501;48.214;11.350;2022-07-29T06:10:45;3.43;;;3.20;;
1024;SDS011;501;48.214;11.350;2022-07-29T06:13:11;3.53;;;2.90;;
1024;SDS011;501;48.214;11.350;2022-07-29T06:15:37;3.60;;;2.97;;
1024;SDS011;501;48.214;11.350;2022-07-29T06:18:03;3.67;;;3.33;;
1024;SDS011;501;48.214;11.350;2022-07-29T06:20:32;3.10;;;2.80;;
1024;SDS011;501;48.214;11.350;2022-07-29T06:22:58;3.27;;;2.97;;
1024;SDS011;501;48.214;11.350;2022-07-29T06:25:24;5.20;;;2.47;;
1024;SDS011;501;48.214;11.350;2022-07-29T06:27:50;2.60;;;2.27;;
1024;SDS011;501;48.214;11.350;2022-07-29T06:30:15;2.30;;;2.10;;
1024;SDS011;501;48.214;11.350;2022-07-29T06:32:41;3.17;;;2.07;;
1024;SDS011;501;48.214;11.350;2022-07-29T06:35:07;3.30;;;2.10;;
1024;SDS011;501;48.214;11.350;2022-07-29T06:37:33;2.53;;;1.90;;
1024;SDS011;501;48.214;11.350;2022-07-29T06:39:58;2.00;;;1.90;;
1024;SDS011;501;48.214;11.350;2022-07-29T06:42:42;2.97;;;1.93;;
1024;SDS011;501;48.214;11.350;2022-07-29T06:45:09;2.00;;;1.90;;
1024;SDS011;501;48.214;11.350;2022-07-29T06:47:35;3.67;;;2.13;;
1024;SDS011;501;48.214;11.350;2022-07-29T06:50:01;1.93;;;1.73;;
1024;SDS011;501;48.214;11.350;2022-07-29T06:52:27;4.13;;;2.10;;
1024;SDS011;501;48.214;11.350;2022-07-29T06:54:52;1.97;;;1.87;;
1024;SDS011;501;48.214;11.350;2022-07-29T06:57:19;1.67;;;1.57;;
1024;SDS011;501;48.214;11.350;2022-07-29T06:59:46;1.70;;;1.60;;
1024;SDS011;501;48.214;11.350;2022-07-29T07:02:12;2.10;;;1.90;;
1024;SDS011;501;48.214;11.350;2022-07-29T07:04:37;1.63;;;1.53;;
1024;SDS011;501;48.214;11.350;2022-07-29T07:07:03;1.90;;;1.60;;
1024;SDS011;501;48.214;11.350;2022-07-29T07:09:29;2.30;;;2.10;;
1024;SDS011;501;48.214;11.350;2022-07-29T07:11:54;4.00;;;2.00;;
1024;SDS011;501;48.214;11.350;2022-07-29T07:14:20;2.10;;;1.90;;
1024;SDS011;501;48.214;11.350;2022-07-29T07:16:45;1.63;;;1.53;;
1024;SDS011;501;48.214;11.350;2022-07-29T07:19:11;1.60;;;1.50;;
1024;SDS011;501;48.214;11.350;2022-07-29T07:21:37;4.47;;;1.90;;
1024;SDS011;501;48.214;11.350;2022-07-29T07:24:02;1.90;;;1.70;;
1024;SDS011;501;48.214;11.350;2022-07-29T07:26:28;2.90;;;1.80;;
1024;SDS011;501;48.214;11.350;2022-07-29T07:28:54;1.80;;;1.70;;
1024;SDS011;501;48.214;11.350;2022-07-29T07:31:19;2.43;;;2.13;;
1024;SDS011;501;48.214;11.350;2022-07-29T07:33:45;5.80;;;2.10;;
1024;SDS011;501;48.214;11.350;2022-07-29T07:36:11;1.73;;;1.57;;
1024;SDS011;501;48.214;11.350;2022-07-29T07:38:36;1.63;;;1.47;;
1024;SDS011;501;48.214;11.350;2022-07-29T07:41:02;1.60;;;1.50;;
1024;SDS011;501;48.214;11.350;2022-07-29T07:43:28;3.43;;;1.80;;
1024;SDS011;501;48.214;11.350;2022-07-29T07:45:53;2.87;;;1.50;;
1024;SDS011;501;48.214;11.350;2022-07-29T07:48:19;1.33;;;1.23;;
1024;SDS011;501;48.214;11.350;2022-07-29T07:50:45;2.07;;;1.40;;
1024;SDS011;501;48.214;11.350;2022-07-29T07:53:10;1.43;;;1.33;;
1024;SDS011;501;48.214;11.350;2022-07-29T07:55:40;1.60;;;1.50;;
1024;SDS011;501;48.214;11.350;2022-07-29T07:58:06;1.63;;;1.53;;
1024;SDS011;501;48.214;11.350;2022-07-29T08:00:32;3.87;;;1.50;;
1024;SDS011;501;48.214;11.350;2022-07-29T08:02:57;2.50;;;1.80;;
1024;SDS011;501;48.214;11.350;2022-07-29T08:05:23;2.70;;;1.67;;
1024;SDS011;501;48.214;11.350;2022-07-29T08:07:49;1.93;;;1.83;;
1024;SDS011;501;48.214;11.350;2022-07-29T08:10:15;5.53;;;2.03;;
1024;SDS011;501;48.214;11.350;2022-07-29T08:13:11;4.83;;;2.10;;
1024;SDS011;501;48.214;11.350;2022-07-29T08:15:38;2.87;;;1.80;;
1024;SDS011;501;48.214;11.350;2022-07-29T08:18:04;2.90;;;1.87;;
1024;SDS011;501;48.214;11.350;2022-07-29T08:20:30;1.80;;;1.70;;
1024;SDS011;501;48.214;11.350;2022-07-29T08:22:58;1.97;;;1.87;;
1024;SDS011;501;48.214;11.350;2022-07-29T08:25:24;2.53;;;2.00;;
1024;SDS011;501;48.214;11.350;2022-07-29T08:27:49;2.13;;;1.40;;
1024;SDS011;501;48.214;11.350;2022-07-29T08:30:15;2.10;;;1.80;;
1024;SDS011;501;48.214;11.350;2022-07-29T08:32:41;2.20;;;2.03;;
1024;SDS011;501;48.214;11.350;2022-07-29T08:35:07;2.60;;;2.37;;
1024;SDS011;501;48.214;11.350;2022-07-29T08:37:33;4.57;;;2.50;;
1024;SDS011;501;48.214;11.350;2022-07-29T08:39:59;2.40;;;2.20;;
1024;SDS011;501;48.214;11.350;2022-07-29T08:42:25;2.20;;;1.93;;
1024;SDS011;501;48.214;11.350;2022-07-29T08:44:50;2.73;;;2.30;;
1024;SDS011;501;48.214;11.350;2022-07-29T08:47:16;2.20;;;1.60;;
1024;SDS011;501;48.214;11.350;2022-07-29T08:49:42;2.70;;;2.50;;
1024;SDS011;501;48.214;11.350;2022-07-29T08:52:10;2.80;;;2.40;;
1024;SDS011;501;48.214;11.350;2022-07-29T08:54:37;3.40;;;2.50;;
1024;SDS011;501;48.214;11.350;2022-07-29T08:57:04;4.10;;;2.23;;
1024;SDS011;501;48.214;11.350;2022-07-29T08:59:30;2.57;;;2.37;;
1024;SDS011;501;48.214;11.350;2022-07-29T09:01:58;2.33;;;2.23;;
1024;SDS011;501;48.214;11.350;2022-07-29T09:04:27;3.20;;;2.40;;
1024;SDS011;501;48.214;11.350;2022-07-29T09:06:59;5.10;;;2.13;;
1024;SDS011;501;48.214;11.350;2022-07-29T09:09:28;2.93;;;2.50;;
1024;SDS011;501;48.214;11.350;2022-07-29T09:11:54;2.90;;;2.70;;
1024;SDS011;501;48.214;11.350;2022-07-29T09:14:20;4.10;;;2.77;;
1024;SDS011;501;48.214;11.350;2022-07-29T09:19:19;2.97;;;2.70;;
1024;SDS011;501;48.214;11.350;2022-07-29T09:21:49;3.63;;;2.87;;
1024;SDS011;501;48.214;11.350;2022-07-29T09:24:25;3.30;;;2.67;;
1024;SDS011;501;48.214;11.350;2022-07-29T09:26:52;2.63;;;2.43;;
1024;SDS011;501;48.214;11.350;2022-07-29T09:29:18;3.10;;;2.80;;
1024;SDS011;501;48.214;11.350;2022-07-29T09:31:49;3.03;;;2.57;;
1024;SDS011;501;48.214;11.350;2022-07-29T09:34:21;2.60;;;2.40;;
1024;SDS011;501;48.214;11.350;2022-07-29T09:36:51;3.53;;;2.37;;
1024;SDS011;501;48.214;11.350;2022-07-29T09:42:06;5.03;;;2.57;;
1024;SDS011;501;48.214;11.350;2022-07-29T09:44:41;2.70;;;2.50;;
1024;SDS011;501;48.214;11.350;2022-07-29T09:47:12;2.53;;;2.27;;
1024;SDS011;501;48.214;11.350;2022-07-29T09:52:41;2.20;;;2.10;;
1024;SDS011;501;48.214;11.350;2022-07-29T09:55:13;3.23;;;2.90;;
1024;SDS011;501;48.214;11.350;2022-07-29T09:57:39;2.60;;;2.23;;
1024;SDS011;501;48.214;11.350;2022-07-29T10:00:06;3.33;;;2.50;;
1024;SDS011;501;48.214;11.350;2022-07-29T10:02:42;4.13;;;3.33;;
1024;SDS011;501;48.214;11.350;2022-07-29T10:05:19;3.57;;;2.73;;
1024;SDS011;501;48.214;11.350;2022-07-29T10:07:47;3.23;;;2.77;;
1024;SDS011;501;48.214;11.350;2022-07-29T10:10:27;3.20;;;2.67;;
1024;SDS011;501;48.214;11.350;2022-07-29T10:12:59;3.03;;;2.73;;
1024;SDS011;501;48.214;11.350;2022-07-29T10:15:32;5.23;;;3.07;;
1024;SDS011;501;48.214;11.350;2022-07-29T10:18:03;3.67;;;2.73;;
1024;SDS011;501;48.214;11.350;2022-07-29T10:20:29;5.63;;;2.77;;
1024;SDS011;501;48.214;11.350;2022-07-29T10:22:55;4.63;;;3.03;;
1024;SDS011;501;48.214;11.350;2022-07-29T10:25:21;2.80;;;2.57;;
1024;SDS011;501;48.214;11.350;2022-07-29T10:27:48;3.17;;;2.87;;
1024;SDS011;501;48.214;11.350;2022-07-29T10:30:16;4.33;;;3.40;;
1024;SDS011;501;48.214;11.350;2022-07-29T10:38:47;3.50;;;3.20;;
1024;SDS011;501;48.214;11.350;2022-07-29T10:44:39;3.43;;;3.13;;
1024;SDS011;501;48.214;11.350;2022-07-29T10:47:06;3.47;;;3.17;;
1024;SDS011;501;48.214;11.350;2022-07-29T10:49:32;4.00;;;3.20;;
1024;SDS011;501;48.214;11.350;2022-07-29T10:52:08;3.10;;;2.90;;
1024;SDS011;501;48.214;11.350;2022-07-29T10:54:47;3.33;;;3.03;;
1024;SDS011;501;48.214;11.350;2022-07-29T10:59:45;3.93;;;2.80;;
1024;SDS011;501;48.214;11.350;2022-07-29T11:07:31;3.87;;;3.30;;
1024;SDS011;501;48.214;11.350;2022-07-29T11:23:27;3.90;;;3.10;;
1024;SDS011;501;48.214;11.350;2022-07-29T11:26:16;3.80;;;3.37;;
1024;SDS011;501;48.214;11.350;2022-07-29T11:31:16;4.20;;;2.70;;
1024;SDS011;501;48.214;11.350;2022-07-29T11:34:05;2.80;;;2.60;;
1024;SDS011;501;48.214;11.350;2022-07-29T11:39:39;3.70;;;2.47;;
1024;SDS011;501;48.214;11.350;2022-07-29T11:44:57;3.97;;;2.80;;
1024;SDS011;501;48.214;11.350;2022-07-29T11:47:23;2.37;;;2.17;;
1024;SDS011;501;48.214;11.350;2022-07-29T11:49:50;3.67;;;2.43;;
1024;SDS011;501;48.214;11.350;2022-07-29T11:52:17;3.77;;;3.40;;
1024;SDS011;501;48.214;11.350;2022-07-29T11:54:44;2.83;;;2.63;;
1024;SDS011;501;48.214;11.350;2022-07-29T11:57:12;3.97;;;2.70;;
1024;SDS011;501;48.214;11.350;2022-07-29T11:59:39;3.00;;;2.80;;
1024;SDS011;501;48.214;11.350;2022-07-29T12:02:06;2.43;;;2.13;;
1024;SDS011;501;48.214;11.350;2022-07-29T12:04:33;4.93;;;2.50;;
1024;SDS011;501;48.214;11.350;2022-07-29T12:07:12;3.27;;;2.97;;
1024;SDS011;501;48.214;11.350;2022-07-29T12:09:38;3.20;;;2.90;;
1024;SDS011;501;48.214;11.350;2022-07-29T12:12:04;3.90;;;2.33;;
1024;SDS011;501;48.214;11.350;2022-07-29T12:14:31;3.20;;;2.70;;
1024;SDS011;501;48.214;11.350;2022-07-29T12:16:58;4.97;;;2.77;;
1024;SDS011;501;48.214;11.350;2022-07-29T12:19:25;4.60;;;3.07;;
1024;SDS011;501;48.214;11.350;2022-07-29T12:21:52;3.63;;;2.70;;
1024;SDS011;501;48.214;11.350;2022-07-29T12:24:20;3.23;;;2.73;;
1024;SDS011;501;48.214;11.350;2022-07-29T12:26:54;2.10;;;2.00;;
1024;SDS011;501;48.214;11.350;2022-07-29T12:29:21;3.07;;;2.73;;
1024;SDS011;501;48.214;11.350;2022-07-29T12:31:50;3.00;;;2.30;;
1024;SDS011;501;48.214;11.350;2022-07-29T12:34:19;4.97;;;2.20;;
1024;SDS011;501;48.214;11.350;2022-07-29T12:36:47;2.70;;;2.50;;
1024;SDS011;501;48.214;11.350;2022-07-29T12:39:14;4.27;;;2.60;;
1024;SDS011;501;48.214;11.350;2022-07-29T12:41:42;2.67;;;2.50;;
1024;SDS011;501;48.214;11.350;2022-07-29T12:44:08;6.73;;;2.60;;
1024;SDS011;501;48.214;11.350;2022-07-29T12:46:33;4.07;;;2.30;;
1024;SDS011;501;48.214;11.350;2022-07-29T12:48:59;3.50;;;2.33;;
1024;SDS011;501;48.214;11.350;2022-07-29T12:51:29;2.60;;;2.40;;
1024;SDS011;501;48.214;11.350;2022-07-29T12:54:17;3.93;;;2.47;;
1024;SDS011;501;48.214;11.350;2022-07-29T12:56:43;2.60;;;2.40;;
1024;SDS011;501;48.214;11.350;2022-07-29T12:59:20;3.10;;;2.43;;
1024;SDS011;501;48.214;11.350;2022-07-29T13:01:47;4.03;;;2.70;;
1024;SDS011;501;48.214;11.350;2022-07-29T13:04:29;3.80;;;2.90;;
1024;SDS011;501;48.214;11.350;2022-07-29T13:06:59;2.37;;;2.17;;
1024;SDS011;501;48.214;11.350;2022-07-29T13:09:40;2.63;;;2.43;;
1024;SDS011;501;48.214;11.350;2022-07-29T13:12:08;7.23;;;3.10;;
1024;SDS011;501;48.214;11.350;2022-07-29T13:14:42;5.33;;;2.43;;
1024;SDS011;501;48.214;11.350;2022-07-29T13:17:19;3.47;;;1.83;;
1024;SDS011;501;48.214;11.350;2022-07-29T13:19:52;4.33;;;2.37;;
1024;SDS011;501;48.214;11.350;2022-07-29T13:22:29;2.67;;;2.57;;
1024;SDS011;501;48.214;11.350;2022-07-29T13:24:55;2.77;;;2.40;;
1024;SDS011;501;48.214;11.350;2022-07-29T13:27:24;2.57;;;2.00;;
1024;SDS011;501;48.214;11.350;2022-07-29T13:29:52;3.00;;;2.20;;
1024;SDS011;501;48.214;11.350;2022-07-29T13:32:21;2.80;;;2.60;;
1024;SDS011;501;48.214;11.350;2022-07-29T13:34:47;6.03;;;2.50;;
1024;SDS011;501;48.214;11.350;2022-07-29T13:37:13;2.90;;;2.70;;
1024;SDS011;501;48.214;11.350;2022-07-29T13:39:38;3.60;;;2.33;;
1024;SDS011;501;48.214;11.350;2022-07-29T13:42:04;2.80;;;2.47;;
1024;SDS011;501;48.214;11.350;2022-07-29T13:44:31;3.67;;;2.23;;
1024;SDS011;501;48.214;11.350;2022-07-29T13:46:57;3.00;;;2.37;;
1024;SDS011;501;48.214;11.350;2022-07-29T13:49:23;2.57;;;2.37;;
1024;SDS011;501;48.214;11.350;2022-07-29T13:51:49;2.37;;;2.17;;
1024;SDS011;501;48.214;11.350;2022-07-29T13:54:15;2.50;;;2.27;;
1024;SDS011;501;48.214;11.350;2022-07-29T13:56:41;3.77;;;2.40;;
1024;SDS011;501;48.214;11.350;2022-07-29T13:59:06;2.67;;;2.47;;
1024;SDS011;501;48.214;11.350;2022-07-29T14:01:34;5.20;;;2.47;;
1024;SDS011;501;48.214;11.350;2022-07-29T14:04:00;4.30;;;2.63;;
1024;SDS011;501;48.214;11.350;2022-07-29T14:06:25;3.17;;;2.60;;
1024;SDS011;501;48.214;11.350;2022-07-29T14:08:51;2.90;;;2.70;;
1024;SDS011;501;48.214;11.350;2022-07-29T14:11:17;7.67;;;3.07;;
1024;SDS011;501;48.214;11.350;2022-07-29T14:13:42;5.80;;;3.30;;
1024;SDS011;501;48.214;11.350;2022-07-29T14:16:08;3.37;;;3.07;;
1024;SDS011;501;48.214;11.350;2022-07-29T14:18:34;3.33;;;3.00;;
1024;SDS011;501;48.214;11.350;2022-07-29T14:20:59;3.60;;;3.30;;
1024;SDS011;501;48.214;11.350;2022-07-29T14:23:25;5.17;;;2.70;;
1024;SDS011;501;48.214;11.350;2022-07-29T14:25:51;5.73;;;3.03;;
1024;SDS011;501;48.214;11.350;2022-07-29T14:28:16;3.13;;;2.93;;
1024;SDS011;501;48.214;11.350;2022-07-29T14:30:42;5.53;;;3.10;;
1024;SDS011;501;48.214;11.350;2022-07-29T14:33:08;3.20;;;2.90;;
1024;SDS011;501;48.214;11.350;2022-07-29T14:35:33;3.50;;;2.40;;
1024;SDS011;501;48.214;11.350;2022-07-29T14:37:59;3.53;;;3.23;;
1024;SDS011;501;48.214;11.350;2022-07-29T14:40:24;3.50;;;3.20;;
1024;SDS011;501;48.214;11.350;2022-07-29T14:42:53;3.13;;;2.90;;
1024;SDS011;501;48.214;11.350;2022-07-29T14:45:18;4.97;;;2.87;;
1024;SDS011;501;48.214;11.350;2022-07-29T14:47:44;4.23;;;3.10;;
1024;SDS011;501;48.214;11.350;2022-07-29T14:50:10;3.50;;;3.20;;
1024;SDS011;501;48.214;11.350;2022-07-29T14:52:36;2.97;;;2.73;;
1024;SDS011;501;48.214;11.350;2022-07-29T14:55:02;3.43;;;3.10;;
1024;SDS011;501;48.214;11.350;2022-07-29T14:57:28;2.80;;;2.60;;
1024;SDS011;501;48.214;11.350;2022-07-29T14:59:54;4.07;;;3.33;;
1024;SDS011;501;48.214;11.350;2022-07-29T15:02:20;6.40;;;3.03;;
1024;SDS011;501;48.214;11.350;2022-07-29T15:04:45;5.93;;;4.13;;
1024;SDS011;501;48.214;11.350;2022-07-29T15:07:12;5.10;;;3.03;;
1024;SDS011;501;48.214;11.350;2022-07-29T15:09:39;3.20;;;2.90;;
1024;SDS011;501;48.214;11.350;2022-07-29T15:12:05;4.40;;;4.10;;
1024;SDS011;501;48.214;11.350;2022-07-29T15:14:31;3.83;;;3.53;;
1024;SDS011;501;48.214;11.350;2022-07-29T15:16:57;4.53;;;3.53;;
1024;SDS011;501;48.214;11.350;2022-07-29T15:19:22;9.43;;;3.27;;
1024;SDS011;501;48.214;11.350;2022-07-29T15:21:48;5.20;;;3.40;;
1024;SDS011;501;48.214;11.350;2022-07-29T15:24:14;3.60;;;2.73;;
1024;SDS011;501;48.214;11.350;2022-07-29T15:26:41;4.80;;;3.10;;
1024;SDS011;501;48.214;11.350;2022-07-29T15:29:07;3.97;;;3.57;;
1024;SDS011;501;48.214;11.350;2022-07-29T15:31:33;4.07;;;3.67;;
1024;SDS011;501;48.214;11.350;2022-07-29T15:33:58;5.33;;;3.53;;
1024;SDS011;501;48.214;11.350;2022-07-29T15:36:24;3.03;;;2.80;;
1024;SDS011;501;48.214;11.350;2022-07-29T15:38:51;4.10;;;3.07;;
1024;SDS011;501;48.214;11.350;2022-07-29T15:41:18;5.47;;;3.30;;
1024;SDS011;501;48.214;11.350;2022-07-29T15:43:44;4.10;;;3.70;;
1024;SDS011;501;48.214;11.350;2022-07-29T15:46:12;3.57;;;3.27;;
1024;SDS011;501;48.214;11.350;2022-07-29T15:48:57;4.13;;;3.83;;
1024;SDS011;501;48.214;11.350;2022-07-29T15:51:23;5.00;;;4.70;;
1024;SDS011;501;48.214;11.350;2022-07-29T15:53:49;5.30;;;4.87;;
1024;SDS011;501;48.214;11.350;2022-07-29T15:56:15;3.63;;;3.33;;
1024;SDS011;501;48.214;11.350;2022-07-29T15:58:40;4.53;;;3.00;;
1024;SDS011;501;48.214;11.350;2022-07-29T16:01:06;4.10;;;3.70;;
1024;SDS011;501;48.214;11.350;2022-07-29T16:03:32;3.53;;;3.03;;
1024;SDS011;501;48.214;11.350;2022-07-29T16:05:57;4.17;;;3.80;;
1024;SDS011;501;48.214;11.350;2022-07-29T16:08:23;3.83;;;3.60;;
1024;SDS011;501;48.214;11.350;2022-07-29T16:13:24;5.27;;;4.87;;
1024;SDS011;501;48.214;11.350;2022-07-29T16:15:49;8.63;;;7.83;;
1024;SDS011;501;48.214;11.350;2022-07-29T16:18:15;4.80;;;4.40;;